sensor_id;sensor_type;location;lat;lon;timestamp;temperature;humidity
1175;DHT22;576;48.418;10.074;2023-03-01T00:01:06;22.00;51.30
1175;DHT22;576;48.418;10.074;2023-03-01T00:03:34;22.00;51.30
1175;DHT22;576;48.418;10.074;2023-03-01T00:06:04;22.00;51.40
1175;DHT22;576;48.418;10.074;2023-03-01T00:08:33;22.00;51.40
1175;DHT22;576;48.418;10.074;2023-03-01T00:11:05;21.90;51.50
1175;DHT22;576;48.418;10.074;2023-03-01T00:13:34;21.90;51.50
1175;DHT22;576;48.418;10.074;2023-03-01T00:16:03;21.90;51.60
1175;DHT22;576;48.418;10.074;2023-03-01T00:18:31;21.90;51.60
1175;DHT22;576;48.418;10.074;2023-03-01T00:20:59;21.80;51.60
1175;DHT22;576;48.418;10.074;2023-03-01T00:23:28;21.80;51.60
1175;DHT22;576;48.418;10.074;2023-03-01T00:25:56;21.80;51.60
1175;DHT22;576;48.418;10.074;2023-03-01T00:28:25;21.80;51.60
1175;DHT22;576;48.418;10.074;2023-03-01T00:30:53;21.80;51.60
1175;DHT22;576;48.418;10.074;2023-03-01T00:33:22;21.80;51.60
1175;DHT22;576;48.418;10.074;2023-03-01T00:35:50;21.80;51.60
1175;DHT22;576;48.418;10.074;2023-03-01T00:38:18;21.80;51.60
1175;DHT22;576;48.418;10.074;2023-03-01T00:40:46;21.80;51.70
1175;DHT22;576;48.418;10.074;2023-03-01T00:43:14;21.80;51.70
1175;DHT22;576;48.418;10.074;2023-03-01T00:45:44;21.80;51.60
1175;DHT22;576;48.418;10.074;2023-03-01T00:48:12;21.80;51.50
1175;DHT22;576;48.418;10.074;2023-03-01T00:50:40;21.80;51.40
1175;DHT22;576;48.418;10.074;2023-03-01T00:53:08;21.80;51.30
1175;DHT22;576;48.418;10.074;2023-03-01T00:55:36;21.90;51.20
1175;DHT22;576;48.418;10.074;2023-03-01T00:58:05;21.90;51.00
1175;DHT22;576;48.418;10.074;2023-03-01T01:00:33;21.90;50.90
1175;DHT22;576;48.418;10.074;2023-03-01T01:03:03;21.90;50.80
1175;DHT22;576;48.418;10.074;2023-03-01T01:05:33;22.00;50.70
1175;DHT22;576;48.418;10.074;2023-03-01T01:08:02;22.00;50.60
1175;DHT22;576;48.418;10.074;2023-03-01T01:10:30;22.00;50.50
1175;DHT22;576;48.418;10.074;2023-03-01T01:12:58;22.00;50.50
1175;DHT22;576;48.418;10.074;2023-03-01T01:15:33;22.00;50.50
1175;DHT22;576;48.418;10.074;2023-03-01T01:18:03;21.90;50.40
1175;DHT22;576;48.418;10.074;2023-03-01T01:20:32;21.90;50.30
1175;DHT22;576;48.418;10.074;2023-03-01T01:23:00;21.90;50.30
1175;DHT22;576;48.418;10.074;2023-03-01T01:25:28;21.90;50.30
1175;DHT22;576;48.418;10.074;2023-03-01T01:27:56;21.90;50.30
1175;DHT22;576;48.418;10.074;2023-03-01T01:30:25;21.80;50.30
1175;DHT22;576;48.418;10.074;2023-03-01T01:32:53;21.80;50.30
1175;DHT22;576;48.418;10.074;2023-03-01T01:35:23;21.80;50.20
1175;DHT22;576;48.418;10.074;2023-03-01T01:37:51;21.80;50.20
1175;DHT22;576;48.418;10.074;2023-03-01T01:40:19;21.80;50.20
1175;DHT22;576;48.418;10.074;2023-03-01T01:42:48;21.80;50.30
1175;DHT22;576;48.418;10.074;2023-03-01T01:45:29;21.80;50.20
1175;DHT22;576;48.418;10.074;2023-03-01T01:48:00;21.80;50.20
1175;DHT22;576;48.418;10.074;2023-03-01T01:50:32;21.70;50.30
1175;DHT22;576;48.418;10.074;2023-03-01T01:53:08;21.80;50.30
1175;DHT22;576;48.418;10.074;2023-03-01T01:55:39;21.80;50.30
1175;DHT22;576;48.418;10.074;2023-03-01T01:58:10;21.80;50.30
1175;DHT22;576;48.418;10.074;2023-03-01T02:00:38;21.80;50.30
1175;DHT22;576;48.418;10.074;2023-03-01T02:03:10;21.80;50.30
1175;DHT22;576;48.418;10.074;2023-03-01T02:05:45;21.80;50.20
1175;DHT22;576;48.418;10.074;2023-03-01T02:08:22;21.80;50.20
1175;DHT22;576;48.418;10.074;2023-03-01T02:10:51;21.80;50.10
1175;DHT22;576;48.418;10.074;2023-03-01T02:13:20;21.80;50.10
1175;DHT22;576;48.418;10.074;2023-03-01T02:15:48;21.80;50.00
1175;DHT22;576;48.418;10.074;2023-03-01T02:18:18;21.90;49.90
1175;DHT22;576;48.418;10.074;2023-03-01T02:21:05;21.90;49.90
1175;DHT22;576;48.418;10.074;2023-03-01T02:23:36;21.90;49.80
1175;DHT22;576;48.418;10.074;2023-03-01T02:26:09;21.90;49.80
1175;DHT22;576;48.418;10.074;2023-03-01T02:28:43;21.90;49.70
1175;DHT22;576;48.418;10.074;2023-03-01T02:31:15;21.90;49.70
1175;DHT22;576;48.418;10.074;2023-03-01T02:34:16;21.80;49.70
1175;DHT22;576;48.418;10.074;2023-03-01T02:36:47;21.80;49.70
1175;DHT22;576;48.418;10.074;2023-03-01T02:39:18;21.80;49.60
1175;DHT22;576;48.418;10.074;2023-03-01T02:41:51;21.80;49.60
1175;DHT22;576;48.418;10.074;2023-03-01T02:44:21;21.80;49.60
1175;DHT22;576;48.418;10.074;2023-03-01T02:46:51;21.80;49.60
1175;DHT22;576;48.418;10.074;2023-03-01T02:49:23;21.80;49.70
1175;DHT22;576;48.418;10.074;2023-03-01T02:52:12;21.80;49.70
1175;DHT22;576;48.418;10.074;2023-03-01T02:54:45;21.80;49.80
1175;DHT22;576;48.418;10.074;2023-03-01T02:57:15;21.70;49.80
1175;DHT22;576;48.418;10.074;2023-03-01T02:59:45;21.70;49.80
1175;DHT22;576;48.418;10.074;2023-03-01T03:02:21;21.70;49.80
1175;DHT22;576;48.418;10.074;2023-03-01T03:05:09;21.70;49.80
1175;DHT22;576;48.418;10.074;2023-03-01T03:07:41;21.70;49.90
1175;DHT22;576;48.418;10.074;2023-03-01T03:10:12;21.70;49.90
1175;DHT22;576;48.418;10.074;2023-03-01T03:12:41;21.70;49.90
1175;DHT22;576;48.418;10.074;2023-03-01T03:15:11;21.70;49.90
1175;DHT22;576;48.418;10.074;2023-03-01T03:17:41;21.70;49.90
1175;DHT22;576;48.418;10.074;2023-03-01T03:20:14;21.70;49.90
1175;DHT22;576;48.418;10.074;2023-03-01T03:22:46;21.70;49.80
1175;DHT22;576;48.418;10.074;2023-03-01T03:25:15;21.70;49.90
1175;DHT22;576;48.418;10.074;2023-03-01T03:27:46;21.70;49.80
1175;DHT22;576;48.418;10.074;2023-03-01T03:30:18;21.70;49.80
1175;DHT22;576;48.418;10.074;2023-03-01T03:32:48;21.70;49.80
1175;DHT22;576;48.418;10.074;2023-03-01T03:35:21;21.80;49.80
1175;DHT22;576;48.418;10.074;2023-03-01T03:37:50;21.80;49.70
1175;DHT22;576;48.418;10.074;2023-03-01T03:40:33;21.80;49.70
1175;DHT22;576;48.418;10.074;2023-03-01T03:43:02;21.80;49.70
1175;DHT22;576;48.418;10.074;2023-03-01T03:45:31;21.80;49.70
1175;DHT22;576;48.418;10.074;2023-03-01T03:48:03;21.80;49.70
1175;DHT22;576;48.418;10.074;2023-03-01T03:50:33;21.80;49.60
1175;DHT22;576;48.418;10.074;2023-03-01T03:53:02;21.80;49.60
1175;DHT22;576;48.418;10.074;2023-03-01T03:55:31;21.80;49.50
1175;DHT22;576;48.418;10.074;2023-03-01T03:58:09;21.80;49.50
1175;DHT22;576;48.418;10.074;2023-03-01T04:00:40;21.70;49.50
1175;DHT22;576;48.418;10.074;2023-03-01T04:03:10;21.80;49.50
1175;DHT22;576;48.418;10.074;2023-03-01T04:05:39;21.80;49.40
1175;DHT22;576;48.418;10.074;2023-03-01T04:08:08;21.70;49.30
1175;DHT22;576;48.418;10.074;2023-03-01T04:10:38;21.70;49.30
1175;DHT22;576;48.418;10.074;2023-03-01T04:13:08;21.80;49.30
1175;DHT22;576;48.418;10.074;2023-03-01T04:15:39;21.70;49.30
1175;DHT22;576;48.418;10.074;2023-03-01T04:18:09;21.70;49.30
1175;DHT22;576;48.418;10.074;2023-03-01T04:20:39;21.70;49.20
1175;DHT22;576;48.418;10.074;2023-03-01T04:23:09;21.70;49.20
1175;DHT22;576;48.418;10.074;2023-03-01T04:25:42;21.70;49.30
1175;DHT22;576;48.418;10.074;2023-03-01T04:28:10;21.70;49.20
1175;DHT22;576;48.418;10.074;2023-03-01T04:30:39;21.70;49.30
1175;DHT22;576;48.418;10.074;2023-03-01T04:33:09;21.70;49.30
1175;DHT22;576;48.418;10.074;2023-03-01T04:35:38;21.70;49.30
1175;DHT22;576;48.418;10.074;2023-03-01T04:38:08;21.70;49.30
1175;DHT22;576;48.418;10.074;2023-03-01T04:40:36;21.70;49.40
1175;DHT22;576;48.418;10.074;2023-03-01T04:43:04;21.70;49.40
1175;DHT22;576;48.418;10.074;2023-03-01T04:45:33;21.70;49.40
1175;DHT22;576;48.418;10.074;2023-03-01T04:48:04;21.70;49.40
1175;DHT22;576;48.418;10.074;2023-03-01T04:50:32;21.70;49.40
1175;DHT22;576;48.418;10.074;2023-03-01T04:53:01;21.70;49.40
1175;DHT22;576;48.418;10.074;2023-03-01T04:55:29;21.70;49.30
1175;DHT22;576;48.418;10.074;2023-03-01T04:57:58;21.70;49.30
1175;DHT22;576;48.418;10.074;2023-03-01T05:00:26;21.70;49.30
1175;DHT22;576;48.418;10.074;2023-03-01T05:02:56;21.70;49.30
1175;DHT22;576;48.418;10.074;2023-03-01T05:05:28;21.70;49.30
1175;DHT22;576;48.418;10.074;2023-03-01T05:07:59;21.70;49.20
1175;DHT22;576;48.418;10.074;2023-03-01T05:10:29;21.70;49.20
1175;DHT22;576;48.418;10.074;2023-03-01T05:12:58;21.70;49.20
1175;DHT22;576;48.418;10.074;2023-03-01T05:15:29;21.70;49.20
1175;DHT22;576;48.418;10.074;2023-03-01T05:17:59;21.70;49.10
1175;DHT22;576;48.418;10.074;2023-03-01T05:20:29;21.70;49.20
1175;DHT22;576;48.418;10.074;2023-03-01T05:22:59;21.70;49.20
1175;DHT22;576;48.418;10.074;2023-03-01T05:25:33;21.70;49.20
1175;DHT22;576;48.418;10.074;2023-03-01T05:28:02;21.70;49.20
1175;DHT22;576;48.418;10.074;2023-03-01T05:30:31;21.70;49.20
1175;DHT22;576;48.418;10.074;2023-03-01T05:33:01;21.70;49.30
1175;DHT22;576;48.418;10.074;2023-03-01T05:35:32;21.70;49.40
1175;DHT22;576;48.418;10.074;2023-03-01T05:38:00;21.70;49.50
1175;DHT22;576;48.418;10.074;2023-03-01T05:40:29;21.70;49.50
1175;DHT22;576;48.418;10.074;2023-03-01T05:42:57;21.70;49.60
1175;DHT22;576;48.418;10.074;2023-03-01T05:45:27;21.60;49.60
1175;DHT22;576;48.418;10.074;2023-03-01T05:47:56;21.60;49.70
1175;DHT22;576;48.418;10.074;2023-03-01T05:50:26;21.60;49.70
1175;DHT22;576;48.418;10.074;2023-03-01T05:53:00;21.70;49.60
1175;DHT22;576;48.418;10.074;2023-03-01T05:55:29;21.60;49.70
1175;DHT22;576;48.418;10.074;2023-03-01T05:57:59;21.70;49.80
1175;DHT22;576;48.418;10.074;2023-03-01T06:00:28;21.70;49.90
1175;DHT22;576;48.418;10.074;2023-03-01T06:02:58;21.70;50.00
1175;DHT22;576;48.418;10.074;2023-03-01T06:05:27;21.70;50.10
1175;DHT22;576;48.418;10.074;2023-03-01T06:08:00;21.70;50.00
1175;DHT22;576;48.418;10.074;2023-03-01T06:10:29;21.70;50.20
1175;DHT22;576;48.418;10.074;2023-03-01T06:12:58;21.60;50.20
1175;DHT22;576;48.418;10.074;2023-03-01T06:15:26;21.70;50.30
1175;DHT22;576;48.418;10.074;2023-03-01T06:17:55;21.60;50.30
1175;DHT22;576;48.418;10.074;2023-03-01T06:20:28;21.60;50.30
1175;DHT22;576;48.418;10.074;2023-03-01T06:22:56;21.60;50.40
1175;DHT22;576;48.418;10.074;2023-03-01T06:25:27;21.60;50.40
1175;DHT22;576;48.418;10.074;2023-03-01T06:27:55;21.60;50.50
1175;DHT22;576;48.418;10.074;2023-03-01T06:30:25;21.60;50.50
1175;DHT22;576;48.418;10.074;2023-03-01T06:32:53;21.60;50.50
1175;DHT22;576;48.418;10.074;2023-03-01T06:35:27;21.60;50.50
1175;DHT22;576;48.418;10.074;2023-03-01T06:37:58;21.60;50.60
1175;DHT22;576;48.418;10.074;2023-03-01T06:40:29;21.60;50.60
1175;DHT22;576;48.418;10.074;2023-03-01T06:42:58;21.60;50.80
1175;DHT22;576;48.418;10.074;2023-03-01T06:45:26;21.60;50.80
1175;DHT22;576;48.418;10.074;2023-03-01T06:48:02;21.60;50.80
1175;DHT22;576;48.418;10.074;2023-03-01T06:50:31;21.60;50.80
1175;DHT22;576;48.418;10.074;2023-03-01T06:52:59;21.50;50.80
1175;DHT22;576;48.418;10.074;2023-03-01T06:55:29;21.60;50.90
1175;DHT22;576;48.418;10.074;2023-03-01T06:57:58;21.60;50.90
1175;DHT22;576;48.418;10.074;2023-03-01T07:00:27;21.60;50.90
1175;DHT22;576;48.418;10.074;2023-03-01T07:02:56;21.60;50.90
1175;DHT22;576;48.418;10.074;2023-03-01T07:05:26;21.60;50.90
1175;DHT22;576;48.418;10.074;2023-03-01T07:07:54;21.60;50.90
1175;DHT22;576;48.418;10.074;2023-03-01T07:10:23;21.60;50.90
1175;DHT22;576;48.418;10.074;2023-03-01T07:12:56;21.60;50.80
1175;DHT22;576;48.418;10.074;2023-03-01T07:15:24;21.70;50.80
1175;DHT22;576;48.418;10.074;2023-03-01T07:17:53;21.70;50.70
1175;DHT22;576;48.418;10.074;2023-03-01T07:20:21;21.70;50.60
1175;DHT22;576;48.418;10.074;2023-03-01T07:22:52;21.70;50.60
1175;DHT22;576;48.418;10.074;2023-03-01T07:25:20;21.70;50.50
1175;DHT22;576;48.418;10.074;2023-03-01T07:27:49;21.70;50.60
1175;DHT22;576;48.418;10.074;2023-03-01T07:30:20;21.70;51.30
1175;DHT22;576;48.418;10.074;2023-03-01T07:32:48;21.70;50.80
1175;DHT22;576;48.418;10.074;2023-03-01T07:35:16;21.70;51.40
1175;DHT22;576;48.418;10.074;2023-03-01T07:37:44;21.80;51.60
1175;DHT22;576;48.418;10.074;2023-03-01T07:40:13;21.80;51.70
1175;DHT22;576;48.418;10.074;2023-03-01T07:42:41;21.80;51.80
1175;DHT22;576;48.418;10.074;2023-03-01T07:45:10;21.80;51.80
1175;DHT22;576;48.418;10.074;2023-03-01T07:47:39;21.80;52.20
1175;DHT22;576;48.418;10.074;2023-03-01T07:50:09;21.80;52.10
1175;DHT22;576;48.418;10.074;2023-03-01T07:52:37;21.90;52.20
1175;DHT22;576;48.418;10.074;2023-03-01T07:55:06;21.90;51.70
1175;DHT22;576;48.418;10.074;2023-03-01T07:57:35;21.90;51.70
1175;DHT22;576;48.418;10.074;2023-03-01T08:00:04;21.90;51.70
1175;DHT22;576;48.418;10.074;2023-03-01T08:06:12;21.90;51.80
1175;DHT22;576;48.418;10.074;2023-03-01T08:08:41;22.00;51.80
1175;DHT22;576;48.418;10.074;2023-03-01T08:11:11;22.00;51.80
1175;DHT22;576;48.418;10.074;2023-03-01T08:13:40;22.00;51.90
1175;DHT22;576;48.418;10.074;2023-03-01T08:16:11;22.00;51.90
1175;DHT22;576;48.418;10.074;2023-03-01T08:18:40;22.10;51.90
1175;DHT22;576;48.418;10.074;2023-03-01T08:21:11;22.10;51.90
1175;DHT22;576;48.418;10.074;2023-03-01T08:23:40;22.10;51.80
1175;DHT22;576;48.418;10.074;2023-03-01T08:26:09;22.20;51.90
1175;DHT22;576;48.418;10.074;2023-03-01T08:28:39;22.20;51.80
1175;DHT22;576;48.418;10.074;2023-03-01T08:31:15;22.30;51.80
1175;DHT22;576;48.418;10.074;2023-03-01T08:33:43;22.40;51.70
1175;DHT22;576;48.418;10.074;2023-03-01T08:36:13;22.40;51.70
1175;DHT22;576;48.418;10.074;2023-03-01T08:38:41;22.50;51.70
1175;DHT22;576;48.418;10.074;2023-03-01T08:41:09;22.50;51.60
1175;DHT22;576;48.418;10.074;2023-03-01T08:43:38;22.50;51.60
1175;DHT22;576;48.418;10.074;2023-03-01T08:46:06;22.60;51.40
1175;DHT22;576;48.418;10.074;2023-03-01T08:48:34;22.60;51.20
1175;DHT22;576;48.418;10.074;2023-03-01T08:51:09;22.60;51.10
1175;DHT22;576;48.418;10.074;2023-03-01T08:53:39;22.60;51.30
1175;DHT22;576;48.418;10.074;2023-03-01T08:56:09;22.60;51.20
1175;DHT22;576;48.418;10.074;2023-03-01T08:58:37;22.60;51.10
1175;DHT22;576;48.418;10.074;2023-03-01T09:01:11;22.60;51.00
1175;DHT22;576;48.418;10.074;2023-03-01T09:03:39;22.50;51.00
1175;DHT22;576;48.418;10.074;2023-03-01T09:06:08;22.60;51.00
1175;DHT22;576;48.418;10.074;2023-03-01T09:08:39;22.60;51.00
1175;DHT22;576;48.418;10.074;2023-03-01T09:11:09;22.60;51.00
1175;DHT22;576;48.418;10.074;2023-03-01T09:13:37;22.60;51.00
1175;DHT22;576;48.418;10.074;2023-03-01T09:16:09;22.50;51.00
1175;DHT22;576;48.418;10.074;2023-03-01T09:18:38;22.60;51.00
1175;DHT22;576;48.418;10.074;2023-03-01T09:21:09;22.60;51.00
1175;DHT22;576;48.418;10.074;2023-03-01T09:23:39;22.50;51.10
1175;DHT22;576;48.418;10.074;2023-03-01T09:26:09;22.50;51.00
1175;DHT22;576;48.418;10.074;2023-03-01T09:28:38;22.50;51.00
1175;DHT22;576;48.418;10.074;2023-03-01T09:31:07;22.50;51.10
1175;DHT22;576;48.418;10.074;2023-03-01T09:33:36;22.50;51.00
1175;DHT22;576;48.418;10.074;2023-03-01T09:36:07;22.50;51.00
1175;DHT22;576;48.418;10.074;2023-03-01T09:38:35;22.50;51.00
1175;DHT22;576;48.418;10.074;2023-03-01T09:41:10;22.50;51.00
1175;DHT22;576;48.418;10.074;2023-03-01T09:43:43;22.50;51.00
1175;DHT22;576;48.418;10.074;2023-03-01T09:46:13;22.50;51.00
1175;DHT22;576;48.418;10.074;2023-03-01T09:48:46;22.50;51.00
1175;DHT22;576;48.418;10.074;2023-03-01T09:51:18;22.60;50.90
1175;DHT22;576;48.418;10.074;2023-03-01T09:53:47;22.60;50.80
1175;DHT22;576;48.418;10.074;2023-03-01T09:56:20;22.70;50.60
1175;DHT22;576;48.418;10.074;2023-03-01T09:58:54;22.70;50.20
1175;DHT22;576;48.418;10.074;2023-03-01T10:01:31;22.70;50.30
1175;DHT22;576;48.418;10.074;2023-03-01T10:04:12;22.70;50.30
1175;DHT22;576;48.418;10.074;2023-03-01T10:07:01;22.70;50.30
1175;DHT22;576;48.418;10.074;2023-03-01T10:09:33;22.80;50.30
1175;DHT22;576;48.418;10.074;2023-03-01T10:12:07;22.80;50.30
1175;DHT22;576;48.418;10.074;2023-03-01T10:14:39;22.80;50.20
1175;DHT22;576;48.418;10.074;2023-03-01T10:17:12;22.80;50.20
1175;DHT22;576;48.418;10.074;2023-03-01T10:19:47;22.80;50.20
1175;DHT22;576;48.418;10.074;2023-03-01T10:22:18;22.90;50.20
1175;DHT22;576;48.418;10.074;2023-03-01T10:24:48;22.90;50.20
1175;DHT22;576;48.418;10.074;2023-03-01T10:27:22;22.90;50.20
1175;DHT22;576;48.418;10.074;2023-03-01T10:29:57;23.00;50.10
1175;DHT22;576;48.418;10.074;2023-03-01T10:32:27;23.00;50.10
1175;DHT22;576;48.418;10.074;2023-03-01T10:34:55;23.00;50.10
1175;DHT22;576;48.418;10.074;2023-03-01T10:37:24;23.00;50.10
1175;DHT22;576;48.418;10.074;2023-03-01T10:39:56;23.10;49.80
1175;DHT22;576;48.418;10.074;2023-03-01T10:42:29;23.10;49.80
1175;DHT22;576;48.418;10.074;2023-03-01T10:44:58;23.10;49.70
1175;DHT22;576;48.418;10.074;2023-03-01T10:47:37;23.20;49.60
1175;DHT22;576;48.418;10.074;2023-03-01T10:50:17;23.20;49.60
1175;DHT22;576;48.418;10.074;2023-03-01T10:52:57;23.30;49.70
1175;DHT22;576;48.418;10.074;2023-03-01T10:55:29;23.30;49.70
1175;DHT22;576;48.418;10.074;2023-03-01T10:58:20;23.30;49.60
1175;DHT22;576;48.418;10.074;2023-03-01T11:00:51;23.30;49.50
1175;DHT22;576;48.418;10.074;2023-03-01T11:03:22;23.40;49.50
1175;DHT22;576;48.418;10.074;2023-03-01T11:05:57;23.60;49.20
1175;DHT22;576;48.418;10.074;2023-03-01T11:08:37;23.70;49.00
1175;DHT22;576;48.418;10.074;2023-03-01T11:11:18;23.90;48.80
1175;DHT22;576;48.418;10.074;2023-03-01T11:13:54;24.00;48.60
1175;DHT22;576;48.418;10.074;2023-03-01T11:16:26;24.20;48.40
1175;DHT22;576;48.418;10.074;2023-03-01T11:21:55;24.50;48.10
1175;DHT22;576;48.418;10.074;2023-03-01T11:24:32;24.70;47.80
1175;DHT22;576;48.418;10.074;2023-03-01T11:27:04;24.80;47.50
1175;DHT22;576;48.418;10.074;2023-03-01T11:29:38;24.90;47.30
1175;DHT22;576;48.418;10.074;2023-03-01T11:32:15;25.00;47.20
1175;DHT22;576;48.418;10.074;2023-03-01T11:34:47;25.10;47.00
1175;DHT22;576;48.418;10.074;2023-03-01T11:37:26;25.10;46.90
1175;DHT22;576;48.418;10.074;2023-03-01T11:40:03;25.10;46.80
1175;DHT22;576;48.418;10.074;2023-03-01T11:42:46;25.20;46.60
1175;DHT22;576;48.418;10.074;2023-03-01T11:45:17;25.10;46.60
1175;DHT22;576;48.418;10.074;2023-03-01T11:47:55;25.20;46.60
1175;DHT22;576;48.418;10.074;2023-03-01T11:50:30;25.10;46.60
1175;DHT22;576;48.418;10.074;2023-03-01T11:53:21;25.10;46.70
1175;DHT22;576;48.418;10.074;2023-03-01T11:56:04;25.10;46.70
1175;DHT22;576;48.418;10.074;2023-03-01T11:58:52;25.10;46.70
1175;DHT22;576;48.418;10.074;2023-03-01T12:01:42;25.10;46.70
1175;DHT22;576;48.418;10.074;2023-03-01T12:07:40;25.20;46.80
1175;DHT22;576;48.418;10.074;2023-03-01T12:10:20;25.20;47.00
1175;DHT22;576;48.418;10.074;2023-03-01T12:13:15;25.30;47.00
1175;DHT22;576;48.418;10.074;2023-03-01T12:16:02;25.30;46.90
1175;DHT22;576;48.418;10.074;2023-03-01T12:18:51;25.30;46.90
1175;DHT22;576;48.418;10.074;2023-03-01T12:21:34;25.30;46.90
1175;DHT22;576;48.418;10.074;2023-03-01T12:24:17;25.40;46.90
1175;DHT22;576;48.418;10.074;2023-03-01T12:26:54;25.40;46.90
1175;DHT22;576;48.418;10.074;2023-03-01T12:29:30;25.40;46.80
1175;DHT22;576;48.418;10.074;2023-03-01T12:35:23;25.50;46.80
1175;DHT22;576;48.418;10.074;2023-03-01T12:38:01;25.50;46.70
1175;DHT22;576;48.418;10.074;2023-03-01T12:41:03;25.50;46.70
1175;DHT22;576;48.418;10.074;2023-03-01T12:43:49;25.50;46.60
1175;DHT22;576;48.418;10.074;2023-03-01T12:46:28;25.50;46.70
1175;DHT22;576;48.418;10.074;2023-03-01T12:49:08;25.50;46.60
1175;DHT22;576;48.418;10.074;2023-03-01T12:51:50;25.50;46.60
1175;DHT22;576;48.418;10.074;2023-03-01T12:54:25;25.60;46.60
1175;DHT22;576;48.418;10.074;2023-03-01T12:56:56;25.60;46.60
1175;DHT22;576;48.418;10.074;2023-03-01T12:59:31;25.60;46.50
1175;DHT22;576;48.418;10.074;2023-03-01T13:02:14;25.70;46.70
1175;DHT22;576;48.418;10.074;2023-03-01T13:04:54;25.70;46.70
1175;DHT22;576;48.418;10.074;2023-03-01T13:07:36;25.80;46.90
1175;DHT22;576;48.418;10.074;2023-03-01T13:10:24;25.80;46.90
1175;DHT22;576;48.418;10.074;2023-03-01T13:13:03;25.80;47.00
1175;DHT22;576;48.418;10.074;2023-03-01T13:15:37;25.90;47.10
1175;DHT22;576;48.418;10.074;2023-03-01T13:18:30;25.90;47.10
1175;DHT22;576;48.418;10.074;2023-03-01T13:21:01;25.90;47.20
1175;DHT22;576;48.418;10.074;2023-03-01T13:23:34;25.90;47.20
1175;DHT22;576;48.418;10.074;2023-03-01T13:28:54;25.90;47.40
1175;DHT22;576;48.418;10.074;2023-03-01T13:34:53;26.00;47.50
1175;DHT22;576;48.418;10.074;2023-03-01T13:37:30;26.00;47.60
1175;DHT22;576;48.418;10.074;2023-03-01T13:40:04;26.00;47.70
1175;DHT22;576;48.418;10.074;2023-03-01T13:42:38;25.90;47.80
1175;DHT22;576;48.418;10.074;2023-03-01T13:45:22;26.00;47.90
1175;DHT22;576;48.418;10.074;2023-03-01T13:47:58;26.00;47.90
1175;DHT22;576;48.418;10.074;2023-03-01T13:50:29;25.90;48.10
1175;DHT22;576;48.418;10.074;2023-03-01T13:53:04;25.90;48.10
1175;DHT22;576;48.418;10.074;2023-03-01T13:55:40;25.90;48.20
1175;DHT22;576;48.418;10.074;2023-03-01T13:58:20;25.90;48.20
1175;DHT22;576;48.418;10.074;2023-03-01T14:00:56;25.90;48.30
1175;DHT22;576;48.418;10.074;2023-03-01T14:03:25;25.80;48.40
1175;DHT22;576;48.418;10.074;2023-03-01T14:06:00;25.80;48.40
1175;DHT22;576;48.418;10.074;2023-03-01T14:08:40;25.80;48.40
1175;DHT22;576;48.418;10.074;2023-03-01T14:11:34;25.80;48.60
1175;DHT22;576;48.418;10.074;2023-03-01T14:14:15;25.80;48.70
1175;DHT22;576;48.418;10.074;2023-03-01T14:16:53;25.70;48.90
1175;DHT22;576;48.418;10.074;2023-03-01T14:19:24;25.70;49.00
1175;DHT22;576;48.418;10.074;2023-03-01T14:22:13;25.70;49.00
1175;DHT22;576;48.418;10.074;2023-03-01T14:27:40;25.70;49.10
1175;DHT22;576;48.418;10.074;2023-03-01T14:30:15;25.70;48.40
1175;DHT22;576;48.418;10.074;2023-03-01T14:32:53;25.60;48.30
1175;DHT22;576;48.418;10.074;2023-03-01T14:35:23;25.60;48.30
1175;DHT22;576;48.418;10.074;2023-03-01T14:37:52;25.50;48.50
1175;DHT22;576;48.418;10.074;2023-03-01T14:40:23;25.50;48.50
1175;DHT22;576;48.418;10.074;2023-03-01T14:42:54;25.50;48.70
1175;DHT22;576;48.418;10.074;2023-03-01T14:45:25;25.50;48.80
1175;DHT22;576;48.418;10.074;2023-03-01T14:47:54;25.50;48.80
1175;DHT22;576;48.418;10.074;2023-03-01T14:50:26;25.40;48.90
1175;DHT22;576;48.418;10.074;2023-03-01T14:52:57;25.40;48.90
1175;DHT22;576;48.418;10.074;2023-03-01T14:55:29;25.40;48.70
1175;DHT22;576;48.418;10.074;2023-03-01T14:57:59;25.40;48.80
1175;DHT22;576;48.418;10.074;2023-03-01T15:00:31;25.40;48.80
1175;DHT22;576;48.418;10.074;2023-03-01T15:03:05;25.30;48.80
1175;DHT22;576;48.418;10.074;2023-03-01T15:05:37;25.30;48.90
1175;DHT22;576;48.418;10.074;2023-03-01T15:08:05;25.20;49.00
1175;DHT22;576;48.418;10.074;2023-03-01T15:10:36;25.20;49.10
1175;DHT22;576;48.418;10.074;2023-03-01T15:13:19;25.20;49.00
1175;DHT22;576;48.418;10.074;2023-03-01T15:15:50;25.20;49.10
1175;DHT22;576;48.418;10.074;2023-03-01T15:18:21;25.10;49.20
1175;DHT22;576;48.418;10.074;2023-03-01T15:20:51;25.10;49.20
1175;DHT22;576;48.418;10.074;2023-03-01T15:23:23;25.10;49.10
1175;DHT22;576;48.418;10.074;2023-03-01T15:25:53;25.10;49.20
1175;DHT22;576;48.418;10.074;2023-03-01T15:28:27;25.10;49.10
1175;DHT22;576;48.418;10.074;2023-03-01T15:31:00;25.20;49.20
1175;DHT22;576;48.418;10.074;2023-03-01T15:33:36;25.20;49.10
1175;DHT22;576;48.418;10.074;2023-03-01T15:36:30;25.20;49.10
1175;DHT22;576;48.418;10.074;2023-03-01T15:38:59;25.20;49.30
1175;DHT22;576;48.418;10.074;2023-03-01T15:41:32;25.20;49.20
1175;DHT22;576;48.418;10.074;2023-03-01T15:44:15;25.20;49.10
1175;DHT22;576;48.418;10.074;2023-03-01T15:46:46;25.10;49.30
1175;DHT22;576;48.418;10.074;2023-03-01T15:49:26;25.10;49.50
1175;DHT22;576;48.418;10.074;2023-03-01T15:51:55;25.10;49.70
1175;DHT22;576;48.418;10.074;2023-03-01T15:54:28;25.10;49.80
1175;DHT22;576;48.418;10.074;2023-03-01T15:56:57;25.10;50.10
1175;DHT22;576;48.418;10.074;2023-03-01T15:59:26;25.10;50.30
1175;DHT22;576;48.418;10.074;2023-03-01T16:01:54;25.10;50.40
1175;DHT22;576;48.418;10.074;2023-03-01T16:04:22;25.10;50.60
1175;DHT22;576;48.418;10.074;2023-03-01T16:06:51;25.00;50.60
1175;DHT22;576;48.418;10.074;2023-03-01T16:09:22;25.00;50.60
1175;DHT22;576;48.418;10.074;2023-03-01T16:11:51;25.00;50.70
1175;DHT22;576;48.418;10.074;2023-03-01T16:14:20;25.00;50.80
1175;DHT22;576;48.418;10.074;2023-03-01T16:16:50;25.00;50.80
1175;DHT22;576;48.418;10.074;2023-03-01T16:19:18;24.90;50.80
1175;DHT22;576;48.418;10.074;2023-03-01T16:21:46;24.90;50.90
1175;DHT22;576;48.418;10.074;2023-03-01T16:24:16;24.80;51.00
1175;DHT22;576;48.418;10.074;2023-03-01T16:26:45;24.80;51.10
1175;DHT22;576;48.418;10.074;2023-03-01T16:29:14;24.80;51.20
1175;DHT22;576;48.418;10.074;2023-03-01T16:31:43;24.80;51.20
1175;DHT22;576;48.418;10.074;2023-03-01T16:34:12;24.70;51.10
1175;DHT22;576;48.418;10.074;2023-03-01T16:36:42;24.70;51.20
1175;DHT22;576;48.418;10.074;2023-03-01T16:39:10;24.70;51.30
1175;DHT22;576;48.418;10.074;2023-03-01T16:41:39;24.60;51.30
1175;DHT22;576;48.418;10.074;2023-03-01T16:44:07;24.60;51.30
1175;DHT22;576;48.418;10.074;2023-03-01T16:46:35;24.60;51.40
1175;DHT22;576;48.418;10.074;2023-03-01T16:49:03;24.60;51.40
1175;DHT22;576;48.418;10.074;2023-03-01T16:51:32;24.60;51.50
1175;DHT22;576;48.418;10.074;2023-03-01T16:54:02;24.50;51.50
1175;DHT22;576;48.418;10.074;2023-03-01T16:56:31;24.50;51.50